Time;durP1;ratioP1;P1;durP2;ratioP2;P2;SDS_P1;SDS_P2;PMS_P1;PMS_P2;Temp;Humidity;BMP_temperature;BMP_pressure;BME280_temperature;BME280_humidity;BME280_pressure;Samples;Min_cycle;Max_cycle;Signal;HPM_P1;HPM_P2
2022/03/27 00:01:49;;;;;;;57.83;51.65;;;;;;;3.82;100.00;101788.88;5016272;28;20426;-78
2022/03/27 00:04:17;;;;;;;67.20;57.33;;;;;;;4.23;100.00;101783.50;5017542;28;20057;-78
2022/03/27 00:06:44;;;;;;;62.35;55.55;;;;;;;4.82;100.00;101777.22;5011607;28;20042;-79
2022/03/27 00:09:11;;;;;;;61.03;54.88;;;;;;;4.23;100.00;101770.34;5011391;28;20057;-80
2022/03/27 00:11:38;;;;;;;60.25;54.45;;;;;;;5.58;100.00;101770.97;5019585;28;20116;-79
2022/03/27 00:14:06;;;;;;;69.38;62.80;;;;;;;5.57;97.08;101775.41;5019539;28;20115;-79
2022/03/27 00:16:34;;;;;;;64.18;57.60;;;;;;;5.75;93.71;101767.53;5017362;28;20115;-81
2022/03/27 00:19:03;;;;;;;57.25;51.63;;;;;;;5.13;97.93;101769.91;5016398;28;20513;-79
2022/03/27 00:21:31;;;;;;;56.30;50.65;;;;;;;5.55;100.00;101764.16;5015961;28;20077;-79
2022/03/27 00:23:57;;;;;;;55.35;50.63;;;;;;;6.47;91.01;101765.72;5021609;28;20046;-81
2022/03/27 00:26:25;;;;;;;59.22;54.38;;;;;;;6.11;89.82;101768.41;5017764;28;20120;-80
2022/03/27 00:28:52;;;;;;;59.42;54.65;;;;;;;6.02;91.21;101774.59;5016281;28;20054;-79
2022/03/27 00:31:24;;;;;;;60.53;55.92;;;;;;;6.46;86.64;101764.06;5019067;28;20041;-79
2022/03/27 00:33:51;;;;;;;;;;;;;;;6.31;86.93;101766.44;5014125;28;20054;-79
2022/03/27 00:36:18;;;;;;;61.05;55.90;;;;;;;6.63;89.01;101763.22;5020293;28;20349;-80
2022/03/27 00:38:47;;;;;;;57.00;52.20;;;;;;;7.18;82.61;101767.34;5021248;28;20053;-79
2022/03/27 00:41:15;;;;;;;50.70;46.90;;;;;;;7.18;81.88;101766.50;5021423;28;20057;-79
2022/03/27 00:43:43;;;;;;;60.83;52.50;;;;;;;7.35;80.64;101768.22;5020217;28;20053;-79
2022/03/27 00:46:11;;;;;;;53.88;48.97;;;;;;;7.42;85.01;101760.50;5022225;28;20049;-80
2022/03/27 00:48:38;;;;;;;51.00;47.00;;;;;;;7.37;84.45;101754.88;5023766;28;20057;-79
2022/03/27 00:51:05;;;;;;;54.88;50.03;;;;;;;7.60;82.07;101761.22;5021041;28;20537;-80
2022/03/27 00:53:32;;;;;;;59.00;54.60;;;;;;;7.40;84.73;101749.25;5023538;28;20053;-78
2022/03/27 00:56:01;;;;;;;61.60;57.00;;;;;;;7.66;82.28;101759.75;5021656;28;20061;-79
2022/03/27 00:58:28;;;;;;;60.10;55.47;;;;;;;7.48;79.21;101759.88;5019762;28;20049;-80
2022/03/27 01:00:57;;;;;;;57.80;53.63;;;;;;;6.99;82.21;101760.47;5020134;28;20060;-78
2022/03/27 01:03:27;;;;;;;59.15;54.60;;;;;;;7.16;80.34;101769.31;5022330;28;20140;-81
2022/03/27 01:05:57;;;;;;;56.80;52.38;;;;;;;7.24;79.49;101761.41;5021346;28;20084;-80
2022/03/27 01:11:16;;;;;;;55.25;50.72;;;;;;;7.38;82.49;101767.09;5018995;28;20107;-79
2022/03/27 01:13:55;;;;;;;56.42;52.03;;;;;;;7.32;80.02;101766.75;5020348;28;20108;-79
2022/03/27 01:16:39;;;;;;;54.88;50.20;;;;;;;6.87;83.41;101764.38;5020544;28;20137;-80
2022/03/27 01:19:07;;;;;;;54.22;50.22;;;;;;;6.68;86.48;101761.91;5020654;28;20050;-79
2022/03/27 01:21:38;;;;;;;61.67;55.08;;;;;;;7.28;82.73;101762.75;5018272;28;20383;-80
2022/03/27 01:24:06;;;;;;;60.95;56.28;;;;;;;7.40;80.77;101776.50;5002420;28;20050;-80
2022/03/27 01:26:34;;;;;;;64.95;58.30;;;;;;;7.24;81.72;101771.16;5020215;28;20054;-79
2022/03/27 01:29:01;;;;;;;117.13;73.60;;;;;;;7.56;81.23;101765.16;5019146;28;20140;-80
2022/03/27 01:31:28;;;;;;;63.92;58.38;;;;;;;8.20;77.22;101763.66;5019484;28;20085;-79
2022/03/27 01:33:55;;;;;;;62.50;56.25;;;;;;;8.34;77.25;101759.50;5019507;28;20060;-80
2022/03/27 01:36:25;;;;;;;101.95;67.80;;;;;;;7.68;77.41;101758.59;5021170;28;20046;-80
2022/03/27 01:38:55;;;;;;;63.72;57.05;;;;;;;7.97;77.29;101759.97;5020816;28;20054;-78
2022/03/27 01:41:23;;;;;;;87.10;61.05;;;;;;;7.83;76.11;101764.06;5020748;28;20053;-79
2022/03/27 01:43:51;;;;;;;190.93;83.72;;;;;;;7.61;77.06;101754.13;5021648;28;20050;-78
2022/03/27 01:46:18;;;;;;;340.48;123.38;;;;;;;7.56;78.43;101757.22;5023621;28;20134;-80
2022/03/27 01:48:44;;;;;;;515.83;201.88;;;;;;;7.31;79.11;101749.22;5017153;28;20053;-79
2022/03/27 01:51:11;;;;;;;475.98;188.10;;;;;;;7.40;78.42;101752.72;5018849;28;20395;-79
2022/03/27 01:53:38;;;;;;;68.45;60.00;;;;;;;7.22;79.49;101757.28;5018326;28;20050;-79
2022/03/27 01:56:08;;;;;;;62.60;57.50;;;;;;;7.16;80.48;101752.63;5017222;28;20054;-80
2022/03/27 01:58:38;;;;;;;119.72;76.88;;;;;;;6.88;81.47;101755.47;5019997;28;20127;-80
2022/03/27 02:01:06;;;;;;;80.75;65.40;;;;;;;6.61;85.08;101753.78;5134987;22;20184;-81
2022/03/27 02:03:33;;;;;;;66.63;59.95;;;;;;;6.68;85.41;101740.81;5040720;28;20570;-81
2022/03/27 02:06:02;;;;;;;74.28;68.50;;;;;;;6.27;88.16;101746.63;5038958;28;20088;-81
2022/03/27 02:08:30;;;;;;;64.00;58.85;;;;;;;6.17;91.78;101749.34;5039735;28;20508;-79
2022/03/27 02:10:56;;;;;;;58.67;53.35;;;;;;;6.29;91.90;101751.72;5037479;28;20646;-80
2022/03/27 02:13:26;;;;;;;64.10;58.72;;;;;;;6.16;93.63;101745.03;5038316;28;20049;-80
2022/03/27 02:15:57;;;;;;;60.17;54.95;;;;;;;5.78;97.50;101751.41;5037372;28;20120;-79
2022/03/27 02:18:26;;;;;;;60.30;54.95;;;;;;;5.70;100.00;101756.59;5037298;28;20049;-80
2022/03/27 02:20:54;;;;;;;59.88;54.17;;;;;;;5.43;100.00;101758.25;5039384;28;20081;-79
2022/03/27 02:23:23;;;;;;;62.17;56.83;;;;;;;5.74;100.00;101755.31;5038952;28;20054;-79
2022/03/27 02:25:50;;;;;;;58.88;53.47;;;;;;;5.29;100.00;101758.75;5034012;28;20107;-78
2022/03/27 02:28:17;;;;;;;56.28;51.50;;;;;;;5.50;100.00;101758.50;5037526;28;20080;-80
2022/03/27 02:30:46;;;;;;;53.10;48.42;;;;;;;5.46;100.00;101760.59;5035055;28;20409;-80
2022/03/27 02:33:16;;;;;;;54.22;49.15;;;;;;;5.46;100.00;101757.97;5024036;28;20061;-79
2022/03/27 02:35:43;;;;;;;53.10;47.97;;;;;;;5.46;100.00;101759.78;5029963;28;20478;-80
2022/03/27 02:38:10;;;;;;;55.30;49.65;;;;;;;5.54;100.00;101759.03;5038147;28;20045;-80
2022/03/27 02:40:39;;;;;;;53.33;48.20;;;;;;;4.68;100.00;101759.22;5040297;28;20053;-79
2022/03/27 02:43:06;;;;;;;52.08;47.50;;;;;;;5.41;100.00;101759.38;5038390;28;20053;-79
2022/03/27 02:45:36;;;;;;;58.42;52.85;;;;;;;5.23;100.00;101756.69;5035467;28;20045;-80
2022/03/27 02:48:05;;;;;;;60.15;54.00;;;;;;;4.92;100.00;101761.38;5039703;28;20103;-80
2022/03/27 02:50:33;;;;;;;56.13;51.13;;;;;;;5.26;100.00;101765.16;5036243;28;20115;-79
2022/03/27 02:53:00;;;;;;;62.17;56.55;;;;;;;5.22;100.00;101762.94;5030181;28;20049;-79
2022/03/27 02:55:27;;;;;;;56.97;52.35;;;;;;;5.40;100.00;101771.72;5037653;28;20049;-81
2022/03/27 02:57:55;;;;;;;52.92;48.38;;;;;;;6.29;100.00;101765.75;5040353;28;20049;-80
2022/03/27 03:00:23;;;;;;;53.15;48.95;;;;;;;6.19;100.00;101760.56;5037001;28;20049;-80
2022/03/27 03:02:50;;;;;;;56.20;52.03;;;;;;;6.25;99.06;101758.31;5037034;28;20077;-81
2022/03/27 03:05:19;;;;;;;53.95;50.20;;;;;;;6.20;100.00;101758.75;5037816;28;20059;-81
2022/03/27 03:07:46;;;;;;;50.72;46.78;;;;;;;6.92;91.08;101761.25;5038640;28;20057;-81
2022/03/27 03:10:14;;;;;;;54.97;50.97;;;;;;;6.75;89.50;101765.63;5032547;28;20046;-79
2022/03/27 03:12:41;;;;;;;52.85;48.53;;;;;;;6.77;90.66;101767.09;5038317;28;20136;-80
2022/03/27 03:15:09;;;;;;;55.95;51.83;;;;;;;6.91;91.48;101770.16;5037081;28;20474;-80
2022/03/27 03:17:37;;;;;;;63.13;58.45;;;;;;;6.67;89.78;101771.66;5039799;28;20060;-79
2022/03/27 03:20:05;;;;;;;59.42;55.30;;;;;;;7.16;90.19;101768.47;5040378;28;20045;-80
2022/03/27 03:22:34;;;;;;;53.00;49.08;;;;;;;6.69;89.88;101779.41;5036971;28;20045;-78
2022/03/27 03:25:01;;;;;;;54.00;50.10;;;;;;;6.75;90.42;101773.53;5038404;28;20060;-81
2022/03/27 03:27:28;;;;;;;59.90;55.70;;;;;;;6.51;93.62;101767.09;5040645;28;20075;-80
2022/03/27 03:29:55;;;;;;;58.53;53.83;;;;;;;6.06;97.63;101778.59;5039706;28;20042;-81
2022/03/27 03:32:24;;;;;;;54.47;49.72;;;;;;;6.42;96.01;101779.41;5036102;28;20483;-80
2022/03/27 03:34:51;;;;;;;50.30;46.58;;;;;;;6.61;92.71;101775.75;5037460;28;20461;-81
2022/03/27 03:37:18;;;;;;;53.97;49.15;;;;;;;6.30;96.11;101774.50;5040533;28;20116;-80
2022/03/27 03:39:47;;;;;;;48.53;44.30;;;;;;;6.25;99.15;101772.31;5039740;28;20038;-80
2022/03/27 03:42:14;;;;;;;63.60;58.28;;;;;;;6.53;94.24;101773.03;5041327;28;20134;-80
2022/03/27 03:44:43;;;;;;;54.90;50.15;;;;;;;6.02;99.80;101771.97;5040490;28;20056;-79
2022/03/27 03:47:10;;;;;;;49.35;45.78;;;;;;;5.95;100.00;101779.63;5040752;28;20215;-81
2022/03/27 03:49:37;;;;;;;55.88;51.92;;;;;;;6.10;100.00;101779.09;5037540;28;20079;-79
2022/03/27 03:52:06;;;;;;;55.65;51.35;;;;;;;5.91;100.00;101787.97;5046225;28;20456;-80
2022/03/27 03:54:34;;;;;;;54.95;50.90;;;;;;;6.10;100.00;101793.13;5034445;28;20045;-80
2022/03/27 03:57:02;;;;;;;52.47;48.40;;;;;;;7.10;99.60;101794.53;5041462;28;20057;-78
2022/03/27 03:59:29;;;;;;;48.70;44.67;;;;;;;6.84;91.92;101793.75;5037190;28;20753;-80
2022/03/27 04:01:56;;;;;;;49.20;45.55;;;;;;;6.70;92.64;101794.28;5040678;28;20137;-82
2022/03/27 04:04:22;;;;;;;48.22;44.83;;;;;;;7.12;88.11;101804.97;5041160;28;20045;-81
2022/03/27 04:06:49;;;;;;;51.30;47.15;;;;;;;6.86;89.38;101800.50;5034636;28;20123;-79
2022/03/27 04:09:16;;;;;;;49.42;45.80;;;;;;;6.73;90.17;101815.94;5042654;28;20045;-79
2022/03/27 04:11:43;;;;;;;49.85;45.95;;;;;;;6.87;90.10;101812.72;5043185;28;20107;-79
2022/03/27 04:14:12;;;;;;;53.83;49.30;;;;;;;6.79;89.96;101812.66;5042021;28;20120;-79
2022/03/27 04:16:39;;;;;;;49.67;46.17;;;;;;;6.84;93.53;101823.59;5041514;28;20042;-78
2022/03/27 04:19:08;;;;;;;49.42;45.45;;;;;;;6.84;90.43;101820.16;5042508;28;20428;-80
2022/03/27 04:21:36;;;;;;;50.83;46.88;;;;;;;6.44;95.15;101816.19;5039995;28;20103;-80
2022/03/27 04:24:04;;;;;;;46.55;43.15;;;;;;;6.36;97.42;101824.03;5030835;28;20124;-79
2022/03/27 04:26:30;;;;;;;51.30;46.70;;;;;;;6.56;100.00;101816.78;5034974;28;20505;-79
2022/03/27 04:28:57;;;;;;;46.55;42.67;;;;;;;6.67;96.95;101821.81;5041377;28;20053;-80
2022/03/27 04:31:25;;;;;;;53.22;48.92;;;;;;;7.07;95.32;101831.84;5039864;28;20049;-81
2022/03/27 04:33:52;;;;;;;53.67;49.67;;;;;;;7.67;87.43;101833.63;5041564;28;20041;-79
2022/03/27 04:36:19;;;;;;;46.72;43.47;;;;;;;7.82;90.90;101833.84;5038581;28;20111;-80
2022/03/27 04:38:46;;;;;;;48.80;45.10;;;;;;;7.84;87.90;101831.88;5037679;28;20045;-80
2022/03/27 04:41:12;;;;;;;52.17;48.38;;;;;;;8.12;83.96;101837.72;5041390;28;20072;-80
2022/03/27 04:43:39;;;;;;;49.45;45.65;;;;;;;8.19;81.09;101836.09;5039256;28;20057;-80
2022/03/27 04:46:07;;;;;;;48.33;44.85;;;;;;;7.97;82.36;101836.72;5039839;28;20061;-79
2022/03/27 04:48:35;;;;;;;52.47;48.85;;;;;;;7.95;82.36;101833.38;5040328;28;20080;-79
2022/03/27 04:51:02;;;;;;;49.50;45.55;;;;;;;8.03;82.85;101834.25;5040119;28;20452;-81
2022/03/27 04:53:29;;;;;;;46.38;42.85;;;;;;;8.03;81.49;101839.53;5032515;28;20446;-80
2022/03/27 04:55:56;;;;;;;47.00;43.22;;;;;;;8.16;87.08;101833.75;5039026;28;20049;-80
2022/03/27 04:58:24;;;;;;;54.92;51.13;;;;;;;8.28;81.40;101839.56;5039537;28;20103;-82
2022/03/27 05:00:50;;;;;;;50.10;46.35;;;;;;;8.44;81.12;101852.03;5038479;28;20141;-80
2022/03/27 05:03:18;;;;;;;47.33;43.97;;;;;;;8.53;83.09;101850.22;5032378;28;20062;-80
2022/03/27 05:05:48;;;;;;;49.33;46.05;;;;;;;8.60;83.67;101845.94;5038828;28;20119;-80
2022/03/27 05:08:15;;;;;;;49.95;45.85;;;;;;;8.89;81.20;101846.22;5038774;28;20054;-80
2022/03/27 05:10:42;;;;;;;47.80;44.50;;;;;;;8.89;76.66;101858.66;5037322;28;20077;-81
2022/03/27 05:13:14;;;;;;;47.30;44.08;;;;;;;8.93;78.63;101858.16;5039681;28;20045;-79
2022/03/27 05:15:41;;;;;;;48.33;44.85;;;;;;;9.07;78.68;101858.47;5035091;28;20041;-80
2022/03/27 05:18:07;;;;;;;47.88;44.67;;;;;;;9.07;77.15;101850.53;5038270;28;20050;-79
2022/03/27 05:20:38;;;;;;;46.92;43.63;;;;;;;9.16;75.62;101844.22;5039563;28;20111;-80
2022/03/27 05:23:06;;;;;;;46.80;43.53;;;;;;;9.07;76.80;101856.66;5041040;28;20445;-80
2022/03/27 05:25:40;;;;;;;49.20;45.60;;;;;;;9.15;79.24;101847.88;5041986;28;20053;-81
2022/03/27 05:28:09;;;;;;;52.58;48.90;;;;;;;9.48;75.34;101848.59;5041085;28;20046;-80
2022/03/27 05:30:36;;;;;;;51.30;47.17;;;;;;;9.43;74.63;101852.75;5041952;28;20045;-80
2022/03/27 05:33:04;;;;;;;46.47;43.45;;;;;;;9.29;75.92;101857.78;5036762;28;20132;-83
2022/03/27 05:35:32;;;;;;;51.97;48.28;;;;;;;9.35;76.11;101856.28;5039281;28;20136;-79
2022/03/27 05:37:59;;;;;;;48.92;45.47;;;;;;;9.25;76.48;101851.16;5038157;28;20510;-79
2022/03/27 05:40:28;;;;;;;50.03;46.47;;;;;;;9.32;76.89;101852.13;5034301;28;20118;-80
2022/03/27 05:42:55;;;;;;;51.40;47.47;;;;;;;9.37;75.52;101849.78;5040801;28;20084;-80
2022/03/27 05:45:23;;;;;;;46.83;43.13;;;;;;;9.67;72.75;101836.75;5034745;28;20092;-80
2022/03/27 05:47:51;;;;;;;47.47;44.17;;;;;;;9.66;73.33;101839.59;5037846;28;20053;-80
2022/03/27 05:50:22;;;;;;;48.47;44.95;;;;;;;9.62;74.14;101839.09;5033906;28;20054;-79
2022/03/27 05:52:49;;;;;;;49.03;45.45;;;;;;;9.75;71.33;101836.72;5039467;28;20061;-81
2022/03/27 05:55:17;;;;;;;50.80;47.15;;;;;;;10.08;69.08;101844.53;4972001;28;20049;-79
2022/03/27 05:57:45;;;;;;;50.00;46.25;;;;;;;9.80;70.35;101841.50;5045468;28;20493;-80
2022/03/27 06:00:16;;;;;;;50.72;46.67;;;;;;;9.85;71.28;101844.47;5054993;28;20037;-80
2022/03/27 06:02:43;;;;;;;48.58;45.15;;;;;;;9.68;72.20;101851.66;5051604;28;20050;-83
2022/03/27 06:05:10;;;;;;;50.60;47.05;;;;;;;9.80;72.27;101841.50;5053006;28;20465;-79
2022/03/27 06:07:43;;;;;;;47.42;43.88;;;;;;;9.96;74.27;101848.56;5055304;28;20044;-80
2022/03/27 06:10:10;;;;;;;49.95;46.08;;;;;;;9.93;72.79;101847.09;5051451;28;20128;-81
2022/03/27 06:12:37;;;;;;;50.08;46.10;;;;;;;10.04;71.83;101851.97;5061643;28;20128;-79
2022/03/27 06:15:06;;;;;;;50.53;46.30;;;;;;;9.96;73.07;101856.53;5051677;28;20489;-81
2022/03/27 06:17:39;;;;;;;46.70;43.35;;;;;;;9.91;72.04;101861.53;5053750;28;20111;-80
2022/03/27 06:20:07;;;;;;;49.20;45.08;;;;;;;10.06;71.54;101871.22;5055774;28;20052;-79
2022/03/27 06:22:33;;;;;;;50.05;46.42;;;;;;;10.01;72.65;101873.56;5055821;28;20056;-79
2022/03/27 06:25:00;;;;;;;49.67;46.47;;;;;;;10.37;70.34;101874.91;5057475;28;20053;-81
2022/03/27 06:27:27;;;;;;;51.45;47.53;;;;;;;10.02;72.43;101879.72;5051609;28;20107;-80
2022/03/27 06:29:54;;;;;;;53.17;48.97;;;;;;;10.74;68.89;101879.44;5045937;28;20045;-80
2022/03/27 06:32:26;;;;;;;52.58;49.05;;;;;;;10.20;71.21;101882.13;5058923;28;20110;-79
2022/03/27 06:34:55;;;;;;;51.13;47.33;;;;;;;11.00;68.84;101893.16;5054712;28;20057;-80
2022/03/27 06:37:25;;;;;;;49.35;45.63;;;;;;;10.14;71.33;101894.25;5052835;28;20473;-79
2022/03/27 06:39:51;;;;;;;48.53;45.00;;;;;;;10.56;69.57;101895.69;5049048;28;20045;-80
2022/03/27 06:42:18;;;;;;;49.05;45.55;;;;;;;10.14;71.36;101888.94;5045151;28;20049;-80
2022/03/27 06:44:45;;;;;;;50.22;47.08;;;;;;;10.28;70.21;101885.56;5049899;28;20142;-79
2022/03/27 06:47:13;;;;;;;54.85;50.63;;;;;;;10.88;69.66;101886.63;5049507;28;20057;-79
2022/03/27 06:49:41;;;;;;;53.55;49.80;;;;;;;10.96;67.75;101891.06;5045856;28;20050;-79
2022/03/27 06:52:10;;;;;;;51.80;48.20;;;;;;;11.04;68.28;101882.16;5020693;28;20044;-80
2022/03/27 06:54:37;;;;;;;53.53;49.25;;;;;;;11.32;66.76;101885.88;5053280;28;20045;-79
2022/03/27 06:57:04;;;;;;;55.05;51.15;;;;;;;11.23;66.98;101890.47;5056092;28;20417;-81
2022/03/27 07:03:01;;;;;;;50.80;46.95;;;;;;;10.90;67.83;101895.25;5047882;28;20481;-79
2022/03/27 07:05:06;;;;;;;51.80;48.00;;;;;;;11.31;66.23;101897.50;5050256;28;20052;-81
2022/03/27 07:07:33;;;;;;;55.75;51.70;;;;;;;11.84;64.88;101895.59;5057727;28;20416;-79
2022/03/27 07:10:00;;;;;;;54.92;50.72;;;;;;;11.68;65.46;101888.66;5054916;28;20100;-79
2022/03/27 07:12:26;;;;;;;53.13;49.63;;;;;;;12.22;63.92;101881.31;5058277;28;20056;-80
2022/03/27 07:14:53;;;;;;;53.80;49.97;;;;;;;12.40;62.73;101886.22;5055156;28;20477;-81
2022/03/27 07:17:20;;;;;;;56.22;52.58;;;;;;;11.45;65.01;101882.59;5057221;28;20049;-81
2022/03/27 07:19:47;;;;;;;53.90;50.05;;;;;;;11.54;64.66;101888.66;5057648;28;20045;-80
2022/03/27 07:22:15;;;;;;;49.63;45.92;;;;;;;11.95;62.70;101896.16;5059425;28;20451;-80
2022/03/27 07:24:42;;;;;;;48.53;45.15;;;;;;;12.05;64.13;101902.03;5060042;28;20052;-78
2022/03/27 07:27:09;;;;;;;48.42;45.00;;;;;;;12.17;63.14;101889.88;5059550;28;20110;-82
2022/03/27 07:29:37;;;;;;;53.28;49.30;;;;;;;12.40;63.00;101902.19;5061580;28;20118;-80
2022/03/27 07:32:05;;;;;;;51.85;48.22;;;;;;;13.00;62.64;101899.06;5054964;28;20461;-79
2022/03/27 07:34:32;;;;;;;55.28;51.13;;;;;;;12.98;60.52;101900.28;5053491;28;20053;-80
2022/03/27 07:36:59;;;;;;;55.17;51.10;;;;;;;12.95;59.89;101896.19;5063916;28;20049;-80
2022/03/27 07:39:27;;;;;;;52.58;48.50;;;;;;;13.28;60.55;101884.94;5054404;28;20049;-79
2022/03/27 07:41:54;;;;;;;53.45;49.78;;;;;;;13.31;58.80;101889.88;5056262;28;20042;-78
2022/03/27 07:44:20;;;;;;;55.05;51.45;;;;;;;13.00;58.47;101879.59;5058204;28;20057;-78
2022/03/27 07:46:48;;;;;;;51.25;47.13;;;;;;;13.17;58.83;101886.28;5059985;28;20385;-79
2022/03/27 07:49:16;;;;;;;50.35;46.60;;;;;;;13.36;59.23;101874.13;5060304;28;20114;-79
2022/03/27 07:51:43;;;;;;;53.05;49.15;;;;;;;13.58;58.18;101866.84;5059892;28;20059;-80
2022/03/27 07:54:10;;;;;;;52.25;48.20;;;;;;;13.53;59.03;101882.63;5059876;28;20087;-79
2022/03/27 07:56:38;;;;;;;50.72;47.05;;;;;;;13.69;58.57;101886.81;5058065;28;20544;-80
2022/03/27 07:59:05;;;;;;;51.95;48.15;;;;;;;13.75;56.96;101878.84;5069102;28;20466;-79
2022/03/27 08:01:32;;;;;;;52.47;48.20;;;;;;;13.62;56.64;101889.47;5063026;28;20477;-78
2022/03/27 08:03:59;;;;;;;51.13;47.30;;;;;;;13.16;58.68;101889.13;5061314;28;20419;-80
2022/03/27 08:06:26;;;;;;;53.38;49.38;;;;;;;13.24;59.25;101905.81;5059988;28;20476;-79
2022/03/27 08:08:55;;;;;;;54.70;50.60;;;;;;;13.35;59.41;101911.69;5058988;28;20044;-80
2022/03/27 08:11:23;;;;;;;53.47;49.63;;;;;;;13.67;58.64;101913.69;5065353;28;20049;-79
2022/03/27 08:13:53;;;;;;;52.78;48.50;;;;;;;13.47;58.13;101920.78;5062306;28;21783;-79
2022/03/27 08:16:20;;;;;;;54.45;50.28;;;;;;;13.67;57.14;101924.38;5014765;28;20053;-79
2022/03/27 08:18:47;;;;;;;50.40;46.58;;;;;;;13.51;58.54;101914.84;5066904;28;20055;-80
2022/03/27 08:21:13;;;;;;;48.50;45.08;;;;;;;12.76;59.09;101918.13;5056192;28;20052;-80
2022/03/27 08:23:40;;;;;;;51.05;47.20;;;;;;;13.36;57.43;101918.66;5061757;28;20044;-79
2022/03/27 08:28:52;;;;;;;53.97;49.80;;;;;;;13.90;58.18;101901.91;5058860;28;20044;-79
2022/03/27 08:31:19;;;;;;;53.97;49.85;;;;;;;13.31;58.22;101911.22;5056475;28;20135;-79
2022/03/27 08:33:46;;;;;;;54.05;50.35;;;;;;;14.15;58.18;101908.38;5060220;28;20037;-79
2022/03/27 08:36:13;;;;;;;56.10;52.00;;;;;;;13.25;58.08;101912.84;5060434;28;20052;-79
2022/03/27 08:38:40;;;;;;;52.13;48.20;;;;;;;14.09;57.09;101911.03;5063909;28;20538;-79
2022/03/27 08:41:10;;;;;;;53.92;49.75;;;;;;;14.15;57.90;101904.88;5048636;28;20060;-79
2022/03/27 08:43:37;;;;;;;53.35;49.38;;;;;;;13.70;58.78;101910.63;5053043;28;20037;-79
2022/03/27 08:46:05;;;;;;;57.20;52.90;;;;;;;14.10;57.81;101905.50;5060456;28;20044;-79
2022/03/27 08:48:33;;;;;;;57.83;52.85;;;;;;;13.95;57.95;101904.81;5051916;28;20065;-77
2022/03/27 08:51:11;;;;;;;56.47;52.15;;;;;;;12.83;58.86;101897.72;5057169;28;20045;-80
2022/03/27 08:53:46;;;;;;;55.70;51.63;;;;;;;13.60;57.12;101896.00;5062954;28;20108;-79
2022/03/27 08:56:14;;;;;;;50.45;46.80;;;;;;;11.99;59.67;101889.47;5058994;28;20056;-80
2022/03/27 08:58:42;;;;;;;57.30;52.70;;;;;;;13.61;59.39;101882.47;5050078;28;20118;-79
2022/03/27 09:01:11;;;;;;;54.42;50.88;;;;;;;11.53;61.77;101879.84;5050055;28;20076;-81
2022/03/27 09:03:38;;;;;;;55.47;51.20;;;;;;;11.94;63.10;101878.53;5053001;28;20477;-79
2022/03/27 09:06:07;;;;;;;56.63;53.03;;;;;;;11.65;63.27;101873.06;5052666;28;20119;-78
2022/03/27 09:08:34;;;;;;;57.40;53.38;;;;;;;14.55;57.52;101881.75;5047240;28;20453;-80
2022/03/27 09:11:03;;;;;;;56.83;52.28;;;;;;;14.38;54.79;101869.81;5051075;28;20049;-80
2022/03/27 09:13:31;;;;;;;50.15;46.78;;;;;;;12.36;59.48;101867.94;5055760;28;20458;-79
2022/03/27 09:16:01;;;;;;;50.25;46.65;;;;;;;11.10;63.38;101865.50;5050311;28;20087;-80
2022/03/27 09:18:43;;;;;;;53.67;49.53;;;;;;;13.34;58.28;101875.31;5051299;28;20489;-80
2022/03/27 09:21:10;;;;;;;53.00;48.53;;;;;;;12.04;62.94;101874.59;5054385;28;20114;-79
2022/03/27 09:23:37;;;;;;;50.38;46.63;;;;;;;11.63;63.50;101875.06;5052153;28;20544;-79
2022/03/27 09:26:05;;;;;;;49.75;46.53;;;;;;;12.01;62.55;101874.97;5003020;28;20059;-79
2022/03/27 09:28:34;;;;;;;50.10;46.72;;;;;;;12.83;61.35;101869.22;5038931;28;20061;-80
2022/03/27 09:31:03;;;;;;;50.55;46.40;;;;;;;13.36;60.50;101876.78;5052435;28;20079;-80
2022/03/27 09:33:49;;;;;;;49.78;46.58;;;;;;;11.31;64.73;101854.13;5044855;28;20049;-78
2022/03/27 09:36:19;;;;;;;49.42;46.17;;;;;;;11.20;65.59;101864.22;5054314;28;20110;-79
2022/03/27 09:39:09;;;;;;;55.90;51.00;;;;;;;12.57;60.67;101860.97;5055476;28;20041;-79
2022/03/27 09:41:38;;;;;;;55.97;51.47;;;;;;;14.69;61.16;101855.06;5050692;28;20045;-79
2022/03/27 09:44:07;;;;;;;52.50;48.03;;;;;;;14.76;55.29;101862.03;5049218;28;20473;-80
2022/03/27 09:46:53;;;;;;;55.10;50.42;;;;;;;17.04;48.08;101864.34;5059580;28;20138;-80
2022/03/27 09:49:22;;;;;;;55.90;51.75;;;;;;;17.11;47.62;101842.78;5056989;28;20049;-80
2022/03/27 09:51:54;;;;;;;62.03;57.15;;;;;;;16.36;49.21;101854.31;5048187;28;20048;-81
2022/03/27 09:54:22;;;;;;;55.20;51.05;;;;;;;13.26;54.36;101854.97;5054725;28;20041;-79
2022/03/27 09:56:49;;;;;;;53.30;49.65;;;;;;;11.66;61.21;101858.72;5056447;28;20128;-79
2022/03/27 09:59:30;;;;;;;60.90;56.35;;;;;;;16.58;51.63;101849.44;5053058;28;20045;-81
2022/03/27 10:02:17;;;;;;;55.40;51.13;;;;;;;15.31;51.53;101849.22;5048548;28;20057;-79
2022/03/27 10:04:54;;;;;;;52.38;48.55;;;;;;;15.77;49.18;101844.78;5047965;28;20091;-79
2022/03/27 10:07:22;;;;;;;49.35;46.05;;;;;;;13.09;55.55;101834.91;5052031;28;20052;-80
2022/03/27 10:09:49;;;;;;;55.47;50.72;;;;;;;12.89;59.81;101834.78;5054390;28;20063;-79
2022/03/27 10:12:17;;;;;;;55.03;51.22;;;;;;;16.18;50.22;101830.94;5057045;28;20382;-79
2022/03/27 10:14:45;;;;;;;54.95;50.85;;;;;;;16.16;48.61;101822.31;5051097;28;20091;-79
2022/03/27 10:17:12;;;;;;;56.03;51.35;;;;;;;16.57;46.70;101836.22;5056990;28;20109;-80
2022/03/27 10:19:43;;;;;;;56.53;51.75;;;;;;;16.09;49.63;101829.53;5056715;28;20045;-80
2022/03/27 10:22:16;;;;;;;54.42;50.20;;;;;;;15.43;49.56;101838.69;5049077;28;20052;-78
2022/03/27 10:24:46;;;;;;;52.90;48.95;;;;;;;16.43;45.86;101840.88;5053848;28;20546;-82
2022/03/27 10:27:17;;;;;;;53.83;49.28;;;;;;;12.67;57.03;101856.13;5058249;28;20110;-79
2022/03/27 10:29:44;;;;;;;57.40;52.60;;;;;;;13.63;55.77;101848.38;5053044;28;20040;-79
2022/03/27 10:32:12;;;;;;;54.70;50.90;;;;;;;14.08;52.60;101842.59;5051817;28;20049;-80
2022/03/27 10:34:45;;;;;;;56.92;52.50;;;;;;;17.40;43.37;101831.34;5052452;28;20452;-81
2022/03/27 10:37:33;;;;;;;56.40;51.90;;;;;;;16.69;46.59;101840.66;5048588;28;20079;-81
2022/03/27 10:40:08;;;;;;;54.13;50.33;;;;;;;14.97;48.76;101844.13;5053044;28;20041;-80
2022/03/27 10:42:45;;;;;;;54.40;50.35;;;;;;;18.12;42.63;101829.81;5046465;28;20148;-80
2022/03/27 10:45:19;;;;;;;53.53;49.53;;;;;;;16.03;45.96;101831.22;5049486;28;20486;-79
2022/03/27 10:48:10;;;;;;;53.97;49.78;;;;;;;17.72;42.10;101827.63;5052241;28;20473;-81
2022/03/27 10:50:51;;;;;;;52.50;48.97;;;;;;;15.58;45.55;101825.88;5049478;28;20105;-80
2022/03/27 10:53:21;;;;;;;55.33;51.45;;;;;;;16.17;46.75;101820.44;5060944;28;20114;-80
2022/03/27 10:55:50;;;;;;;51.85;48.65;;;;;;;14.72;50.88;101826.03;5049745;28;20073;-80
2022/03/27 10:58:28;;;;;;;52.28;48.45;;;;;;;19.50;38.36;101809.63;5050153;28;20045;-79
2022/03/27 11:00:55;;;;;;;56.40;52.45;;;;;;;19.47;38.10;101820.06;5053555;28;20106;-79
2022/03/27 11:03:47;;;;;;;53.78;49.60;;;;;;;20.17;36.46;101811.69;5061281;28;20057;-79
2022/03/27 11:06:27;;;;;;;50.15;46.50;;;;;;;16.67;42.86;101817.78;5050703;28;20075;-79
2022/03/27 11:08:57;;;;;;;48.00;44.42;;;;;;;14.02;48.40;101811.34;5057268;28;20049;-80
2022/03/27 11:12:01;;;;;;;50.95;47.38;;;;;;;18.71;39.59;101806.53;5057134;28;20083;-81
2022/03/27 11:14:58;;;;;;;55.30;51.05;;;;;;;19.31;37.01;101797.38;5058970;28;20045;-79
2022/03/27 11:17:43;;;;;;;52.28;48.92;;;;;;;17.44;41.37;101802.16;5053286;28;20103;-79
2022/03/27 11:20:28;;;;;;;51.70;48.03;;;;;;;18.09;39.12;101801.50;5057388;28;20049;-79
2022/03/27 11:22:56;;;;;;;54.20;50.28;;;;;;;20.33;38.16;101781.22;5057432;28;20053;-81
2022/03/27 11:25:36;;;;;;;51.38;47.92;;;;;;;19.82;36.86;101793.84;5054259;28;20080;-79
2022/03/27 11:28:08;;;;;;;52.30;48.58;;;;;;;16.91;40.73;101783.94;5046580;28;20432;-80
2022/03/27 11:30:37;;;;;;;48.63;45.38;;;;;;;19.80;37.53;101784.34;5050251;28;20144;-81